EIDWEICK

Guest
Details From EIDW - Dublin
To EICK - Cork
Flight Number -
Tags Generated
Created
Modified
Stats Distance 126 nm / 233 km
Max Altitude 0 ft / 0 m
Waypoints 2
Social Downloads 5
Likes 0
Share VATSIM

Download

Looking for another format? Having issues loading an existing format? Contact us
Advertisement - Login to hide

Notes

Generated

Route

EIDW EICK

ID Type Via Altitude Latitude Longitude Leg Dist Tot Dist Heading (true) Name
O EIDW APT - 0 ft / 0 m 53.43655˚ -6.26227˚ - 0 nm - -
O EICK APT - 0 ft / 0 m 51.84143˚ -8.49570˚ 125 nm 125 nm 221° / 219° -

Altitude Profile

Advertisement - Login to hide

EIDW

Details ICAO EIDW (DUB)
Name Dublin
Region Ireland
Timezone Europe/Dublin (UTC+0.0)
Stats Elevation 242 ft / 74 m (AMSL)
Location 53.428264° -6.259550°
Runways 3
Magnetic Variation 3.021° W

METAR

EIDW 181630Z 30003KT 9999 FEW030 SCT050 BKN250 06/04 Q1029 NOSIG

Decode

TAF

Not found

Departure Runways

ID Width Length Bearing (true) Bearing (mag) Surface Threshold Offset Overrun Length
10 148 ft / 45 m 8,625 ft / 2,629 m 95.25° 98.27° Concrete 0 ft / 0 m 0 ft / 0 m
11 200 ft / 61 m 4,380 ft / 1,335 m 105.01° 108.03° Asphalt 279 ft / 85 m 0 ft / 0 m
16 200 ft / 61 m 6,791 ft / 2,070 m 156.64° 159.66° Asphalt 0 ft / 0 m 0 ft / 0 m
28 148 ft / 45 m 8,625 ft / 2,629 m 275.28° 278.30° Concrete 0 ft / 0 m 0 ft / 0 m
29 200 ft / 61 m 4,380 ft / 1,335 m 285.02° 288.04° Asphalt 0 ft / 0 m 0 ft / 0 m
34 200 ft / 61 m 6,791 ft / 2,070 m 336.65° 339.67° Asphalt 0 ft / 0 m 0 ft / 0 m

EICK

Details ICAO EICK (ORK)
Name Cork
Region Ireland
Timezone Europe/Dublin (UTC+0.0)
Stats Elevation 502 ft / 153 m (AMSL)
Location 51.842605° -8.489056°
Runways 2
Magnetic Variation 3.610° W

METAR

EICK 181630Z 16005KT 0400 R17/0550N R35/0450N -DZ FG BKN001 08/08 Q1030 TEMPO 0200

Decode

TAF

TAF AMD EICK 181026Z 1810/1906 VRB03KT 0300 FG BKN001 TEMPO 1810/1906 1500 BR -DZ BKN002 BECMG 1818/1821 18007KT

Decode

Destination Runways

ID Width Length Bearing (true) Bearing (mag) Surface Threshold Offset Overrun Length
07 148 ft / 45 m 4,281 ft / 1,305 m 62.55° 66.16° Concrete 0 ft / 0 m 0 ft / 0 m
17 148 ft / 45 m 6,992 ft / 2,131 m 159.93° 163.54° Asphalt 0 ft / 0 m 115 ft / 35 m
25 148 ft / 45 m 4,281 ft / 1,305 m 242.57° 246.18° Concrete 0 ft / 0 m 39 ft / 12 m
35 148 ft / 45 m 6,992 ft / 2,131 m 339.94° 343.55° Asphalt 0 ft / 0 m 0 ft / 0 m

Approach Navaids

Runway Type Ident Frequency Range Bearing (true) Bearing (mag) Slope Elevation
17 Localiser ICS 109.90 MHz 18 nm / 33 km 160.21° 163.82° - 502 ft / 153 m (AMSL)
17 Glidescope ICS 109.90 MHz 10 nm / 19 km 159.93° 163.54° 3.00° 502 ft / 153 m (AMSL)
17 DME ICS 109.90 MHz 18 nm / 33 km - - - 490 ft / 149 m (AMSL)
35 Localiser ICN 109.15 MHz 18 nm / 33 km 339.65° 343.26° - 490 ft / 149 m (AMSL)
35 Glidescope ICN 109.15 MHz 10 nm / 19 km 339.93° 343.54° 3.00° 502 ft / 153 m (AMSL)
35 DME ICN 109.15 MHz 18 nm / 33 km - - - 490 ft / 149 m (AMSL)

Popular Alternatives